sensor_id;sensor_type;location;lat;lon;timestamp;temperature;humidity
8633;DHT22;4354;49.832;10.746;2023-02-28T00:01:15;-3.20;99.90
8633;DHT22;4354;49.832;10.746;2023-02-28T00:03:42;-3.20;99.90
8633;DHT22;4354;49.832;10.746;2023-02-28T00:06:09;-3.10;99.90
8633;DHT22;4354;49.832;10.746;2023-02-28T00:08:37;-3.00;99.90
8633;DHT22;4354;49.832;10.746;2023-02-28T00:11:09;-3.00;99.90
8633;DHT22;4354;49.832;10.746;2023-02-28T00:13:40;-2.90;99.90
8633;DHT22;4354;49.832;10.746;2023-02-28T00:16:09;-3.00;99.90
8633;DHT22;4354;49.832;10.746;2023-02-28T00:18:37;-2.90;99.90
8633;DHT22;4354;49.832;10.746;2023-02-28T00:21:05;-3.00;99.90
8633;DHT22;4354;49.832;10.746;2023-02-28T00:23:32;-3.10;99.90
8633;DHT22;4354;49.832;10.746;2023-02-28T00:25:59;-3.00;99.90
8633;DHT22;4354;49.832;10.746;2023-02-28T00:28:26;-3.00;99.90
8633;DHT22;4354;49.832;10.746;2023-02-28T00:30:52;-3.10;99.90
8633;DHT22;4354;49.832;10.746;2023-02-28T00:33:19;-3.00;99.90
8633;DHT22;4354;49.832;10.746;2023-02-28T00:35:46;-3.00;99.90
8633;DHT22;4354;49.832;10.746;2023-02-28T00:38:14;-3.00;99.90
8633;DHT22;4354;49.832;10.746;2023-02-28T00:40:41;-3.00;99.90
8633;DHT22;4354;49.832;10.746;2023-02-28T00:43:08;-3.10;99.90
8633;DHT22;4354;49.832;10.746;2023-02-28T00:45:34;-3.10;99.90
8633;DHT22;4354;49.832;10.746;2023-02-28T00:48:01;-3.00;99.90
8633;DHT22;4354;49.832;10.746;2023-02-28T00:50:28;-3.00;99.90
8633;DHT22;4354;49.832;10.746;2023-02-28T00:52:55;-3.10;99.90
8633;DHT22;4354;49.832;10.746;2023-02-28T00:55:22;-3.20;99.90
8633;DHT22;4354;49.832;10.746;2023-02-28T00:57:48;-3.20;99.90
8633;DHT22;4354;49.832;10.746;2023-02-28T01:00:15;-3.30;99.90
8633;DHT22;4354;49.832;10.746;2023-02-28T01:02:42;-3.30;99.90
8633;DHT22;4354;49.832;10.746;2023-02-28T01:05:09;-3.40;99.90
8633;DHT22;4354;49.832;10.746;2023-02-28T01:07:36;-3.40;99.90
8633;DHT22;4354;49.832;10.746;2023-02-28T01:10:03;-3.50;99.90
8633;DHT22;4354;49.832;10.746;2023-02-28T01:12:30;-3.60;99.90
8633;DHT22;4354;49.832;10.746;2023-02-28T01:14:57;-3.70;99.90
8633;DHT22;4354;49.832;10.746;2023-02-28T01:17:24;-3.70;99.90
8633;DHT22;4354;49.832;10.746;2023-02-28T01:19:53;-3.80;99.90
8633;DHT22;4354;49.832;10.746;2023-02-28T01:22:21;-3.90;99.90
8633;DHT22;4354;49.832;10.746;2023-02-28T01:24:47;-4.00;99.90
8633;DHT22;4354;49.832;10.746;2023-02-28T01:27:14;-4.00;99.90
8633;DHT22;4354;49.832;10.746;2023-02-28T01:29:41;-4.10;99.90
8633;DHT22;4354;49.832;10.746;2023-02-28T01:32:07;-4.20;99.90
8633;DHT22;4354;49.832;10.746;2023-02-28T01:34:34;-4.20;99.90
8633;DHT22;4354;49.832;10.746;2023-02-28T01:37:01;-4.20;99.90
8633;DHT22;4354;49.832;10.746;2023-02-28T01:39:30;-4.20;99.90
8633;DHT22;4354;49.832;10.746;2023-02-28T01:41:57;-4.30;99.90
8633;DHT22;4354;49.832;10.746;2023-02-28T01:45:43;-4.40;99.90
8633;DHT22;4354;49.832;10.746;2023-02-28T01:47:41;-4.40;99.90
8633;DHT22;4354;49.832;10.746;2023-02-28T01:50:19;-4.40;99.90
8633;DHT22;4354;49.832;10.746;2023-02-28T01:52:48;-4.50;99.90
8633;DHT22;4354;49.832;10.746;2023-02-28T01:55:17;-4.50;99.90
8633;DHT22;4354;49.832;10.746;2023-02-28T01:57:52;-4.50;99.90
8633;DHT22;4354;49.832;10.746;2023-02-28T02:00:23;-4.60;99.90
8633;DHT22;4354;49.832;10.746;2023-02-28T02:02:54;-4.50;99.90
8633;DHT22;4354;49.832;10.746;2023-02-28T02:05:24;-4.40;99.90
8633;DHT22;4354;49.832;10.746;2023-02-28T02:07:54;-4.40;99.90
8633;DHT22;4354;49.832;10.746;2023-02-28T02:10:46;-4.30;99.90
8633;DHT22;4354;49.832;10.746;2023-02-28T02:29:50;-4.20;99.90
8633;DHT22;4354;49.832;10.746;2023-02-28T02:32:42;-4.20;99.90
8633;DHT22;4354;49.832;10.746;2023-02-28T02:35:40;-4.20;99.90
8633;DHT22;4354;49.832;10.746;2023-02-28T02:38:36;-4.20;99.90
8633;DHT22;4354;49.832;10.746;2023-02-28T02:41:22;-4.10;99.90
8633;DHT22;4354;49.832;10.746;2023-02-28T02:44:03;-4.20;99.90
8633;DHT22;4354;49.832;10.746;2023-02-28T02:46:37;-4.10;99.90
8633;DHT22;4354;49.832;10.746;2023-02-28T02:49:08;-4.00;99.90
8633;DHT22;4354;49.832;10.746;2023-02-28T02:51:53;-3.90;99.90
8633;DHT22;4354;49.832;10.746;2023-02-28T02:54:25;-3.90;99.90
8633;DHT22;4354;49.832;10.746;2023-02-28T02:56:57;-3.70;99.90
8633;DHT22;4354;49.832;10.746;2023-02-28T02:59:26;-3.60;99.90
8633;DHT22;4354;49.832;10.746;2023-02-28T03:02:01;-3.60;99.90
8633;DHT22;4354;49.832;10.746;2023-02-28T03:04:34;-3.60;99.90
8633;DHT22;4354;49.832;10.746;2023-02-28T03:07:04;-3.50;99.90
8633;DHT22;4354;49.832;10.746;2023-02-28T03:09:33;-3.40;99.90
8633;DHT22;4354;49.832;10.746;2023-02-28T03:12:00;-3.40;99.90
8633;DHT22;4354;49.832;10.746;2023-02-28T03:14:43;-3.40;99.90
8633;DHT22;4354;49.832;10.746;2023-02-28T03:28:40;-3.40;99.90
8633;DHT22;4354;49.832;10.746;2023-02-28T03:31:33;-3.40;99.90
8633;DHT22;4354;49.832;10.746;2023-02-28T03:34:34;-3.40;99.90
8633;DHT22;4354;49.832;10.746;2023-02-28T03:37:04;-3.40;99.90
8633;DHT22;4354;49.832;10.746;2023-02-28T03:39:39;-3.50;99.90
8633;DHT22;4354;49.832;10.746;2023-02-28T03:42:14;-3.50;99.90
8633;DHT22;4354;49.832;10.746;2023-02-28T03:44:50;-3.60;99.90
8633;DHT22;4354;49.832;10.746;2023-02-28T03:48:02;-3.60;99.90
8633;DHT22;4354;49.832;10.746;2023-02-28T03:50:44;-3.60;99.90
8633;DHT22;4354;49.832;10.746;2023-02-28T03:53:17;-3.70;99.90
8633;DHT22;4354;49.832;10.746;2023-02-28T03:55:52;-3.80;99.90
8633;DHT22;4354;49.832;10.746;2023-02-28T04:01:01;-4.00;99.90
8633;DHT22;4354;49.832;10.746;2023-02-28T04:03:37;-4.10;99.90
8633;DHT22;4354;49.832;10.746;2023-02-28T04:06:05;-4.10;99.90
8633;DHT22;4354;49.832;10.746;2023-02-28T04:08:34;-4.10;99.90
8633;DHT22;4354;49.832;10.746;2023-02-28T04:11:04;-4.10;99.90
8633;DHT22;4354;49.832;10.746;2023-02-28T04:13:33;-4.00;99.90
8633;DHT22;4354;49.832;10.746;2023-02-28T04:15:59;-3.90;99.90
8633;DHT22;4354;49.832;10.746;2023-02-28T04:18:26;-3.80;99.90
8633;DHT22;4354;49.832;10.746;2023-02-28T04:20:53;-3.90;99.90
8633;DHT22;4354;49.832;10.746;2023-02-28T04:23:20;-3.90;99.90
8633;DHT22;4354;49.832;10.746;2023-02-28T04:25:46;-3.80;99.90
8633;DHT22;4354;49.832;10.746;2023-02-28T04:28:13;-3.50;99.90
8633;DHT22;4354;49.832;10.746;2023-02-28T04:30:40;-3.80;99.90
8633;DHT22;4354;49.832;10.746;2023-02-28T04:33:07;-3.80;99.90
8633;DHT22;4354;49.832;10.746;2023-02-28T04:35:34;-3.80;99.90
8633;DHT22;4354;49.832;10.746;2023-02-28T04:38:00;-3.80;99.90
8633;DHT22;4354;49.832;10.746;2023-02-28T04:40:27;-3.80;99.90
8633;DHT22;4354;49.832;10.746;2023-02-28T04:42:54;-3.80;99.90
8633;DHT22;4354;49.832;10.746;2023-02-28T04:45:21;-3.90;99.90
8633;DHT22;4354;49.832;10.746;2023-02-28T04:47:47;-3.90;99.90
8633;DHT22;4354;49.832;10.746;2023-02-28T04:50:14;-4.00;99.90
8633;DHT22;4354;49.832;10.746;2023-02-28T04:52:41;-4.00;99.90
8633;DHT22;4354;49.832;10.746;2023-02-28T04:55:08;-4.00;99.90
8633;DHT22;4354;49.832;10.746;2023-02-28T04:57:35;-4.00;99.90
8633;DHT22;4354;49.832;10.746;2023-02-28T05:00:02;-4.10;99.90
8633;DHT22;4354;49.832;10.746;2023-02-28T05:02:34;-4.20;99.90
8633;DHT22;4354;49.832;10.746;2023-02-28T05:05:02;-4.20;99.90
8633;DHT22;4354;49.832;10.746;2023-02-28T05:07:28;-4.30;99.90
8633;DHT22;4354;49.832;10.746;2023-02-28T05:09:55;-4.30;99.90
8633;DHT22;4354;49.832;10.746;2023-02-28T05:12:22;-4.30;99.90
8633;DHT22;4354;49.832;10.746;2023-02-28T05:14:49;-4.40;99.90
8633;DHT22;4354;49.832;10.746;2023-02-28T05:17:16;-4.40;99.90
8633;DHT22;4354;49.832;10.746;2023-02-28T05:19:43;-4.50;99.90
8633;DHT22;4354;49.832;10.746;2023-02-28T05:22:14;-4.40;99.90
8633;DHT22;4354;49.832;10.746;2023-02-28T05:24:43;-4.50;99.90
8633;DHT22;4354;49.832;10.746;2023-02-28T05:27:10;-4.50;99.90
8633;DHT22;4354;49.832;10.746;2023-02-28T05:29:37;-4.50;99.90
8633;DHT22;4354;49.832;10.746;2023-02-28T05:32:12;-4.50;99.90
8633;DHT22;4354;49.832;10.746;2023-02-28T05:34:40;-4.50;99.90
8633;DHT22;4354;49.832;10.746;2023-02-28T05:37:12;-4.50;99.90
8633;DHT22;4354;49.832;10.746;2023-02-28T05:39:39;-4.50;99.90
8633;DHT22;4354;49.832;10.746;2023-02-28T05:42:06;-4.50;99.90
8633;DHT22;4354;49.832;10.746;2023-02-28T05:44:33;-4.50;99.90
8633;DHT22;4354;49.832;10.746;2023-02-28T05:47:00;-4.50;99.90
8633;DHT22;4354;49.832;10.746;2023-02-28T05:49:27;-4.40;99.90
8633;DHT22;4354;49.832;10.746;2023-02-28T05:51:54;-4.40;99.90
8633;DHT22;4354;49.832;10.746;2023-02-28T05:54:20;-4.40;99.90
8633;DHT22;4354;49.832;10.746;2023-02-28T05:56:47;-4.30;99.90
8633;DHT22;4354;49.832;10.746;2023-02-28T05:59:14;-4.20;99.90
8633;DHT22;4354;49.832;10.746;2023-02-28T06:01:42;-4.00;99.90
8633;DHT22;4354;49.832;10.746;2023-02-28T06:04:16;-3.90;99.90
8633;DHT22;4354;49.832;10.746;2023-02-28T06:06:57;-3.70;99.90
8633;DHT22;4354;49.832;10.746;2023-02-28T06:09:24;-3.50;99.90
8633;DHT22;4354;49.832;10.746;2023-02-28T06:11:51;-3.40;99.90
8633;DHT22;4354;49.832;10.746;2023-02-28T06:14:19;-3.20;99.90
8633;DHT22;4354;49.832;10.746;2023-02-28T06:16:47;-3.10;99.90
8633;DHT22;4354;49.832;10.746;2023-02-28T06:19:14;-2.80;99.90
8633;DHT22;4354;49.832;10.746;2023-02-28T06:21:42;-2.80;99.90
8633;DHT22;4354;49.832;10.746;2023-02-28T06:24:09;-2.60;99.90
8633;DHT22;4354;49.832;10.746;2023-02-28T06:26:36;-2.60;99.90
8633;DHT22;4354;49.832;10.746;2023-02-28T06:29:03;-2.50;99.90
8633;DHT22;4354;49.832;10.746;2023-02-28T06:31:30;-2.40;99.90
8633;DHT22;4354;49.832;10.746;2023-02-28T06:33:57;-2.30;99.90
8633;DHT22;4354;49.832;10.746;2023-02-28T06:36:24;-2.20;99.90
8633;DHT22;4354;49.832;10.746;2023-02-28T06:38:51;-2.10;99.90
8633;DHT22;4354;49.832;10.746;2023-02-28T06:41:25;-2.00;99.90
8633;DHT22;4354;49.832;10.746;2023-02-28T06:43:53;-2.00;99.90
8633;DHT22;4354;49.832;10.746;2023-02-28T06:46:20;-1.90;99.90
8633;DHT22;4354;49.832;10.746;2023-02-28T06:48:47;-1.80;99.90
8633;DHT22;4354;49.832;10.746;2023-02-28T06:51:16;-1.60;99.90
8633;DHT22;4354;49.832;10.746;2023-02-28T06:53:43;-1.60;99.90
8633;DHT22;4354;49.832;10.746;2023-02-28T06:56:13;-1.50;99.90
8633;DHT22;4354;49.832;10.746;2023-02-28T06:58:41;-1.40;99.90
8633;DHT22;4354;49.832;10.746;2023-02-28T07:01:08;-1.30;99.90
8633;DHT22;4354;49.832;10.746;2023-02-28T07:03:37;-1.20;99.90
8633;DHT22;4354;49.832;10.746;2023-02-28T07:06:04;-1.10;99.90
8633;DHT22;4354;49.832;10.746;2023-02-28T07:08:32;-1.00;99.90
8633;DHT22;4354;49.832;10.746;2023-02-28T07:10:59;-0.90;99.90
8633;DHT22;4354;49.832;10.746;2023-02-28T07:13:26;-0.80;99.90
8633;DHT22;4354;49.832;10.746;2023-02-28T07:15:58;-0.60;99.90
8633;DHT22;4354;49.832;10.746;2023-02-28T07:18:25;-0.60;99.90
8633;DHT22;4354;49.832;10.746;2023-02-28T07:20:52;-0.60;99.90
8633;DHT22;4354;49.832;10.746;2023-02-28T07:23:19;-0.50;99.90
8633;DHT22;4354;49.832;10.746;2023-02-28T07:25:49;-0.50;99.90
8633;DHT22;4354;49.832;10.746;2023-02-28T07:28:16;-0.40;99.90
8633;DHT22;4354;49.832;10.746;2023-02-28T07:30:43;-0.40;99.90
8633;DHT22;4354;49.832;10.746;2023-02-28T07:33:10;-0.30;99.90
8633;DHT22;4354;49.832;10.746;2023-02-28T07:35:37;-0.20;99.90
8633;DHT22;4354;49.832;10.746;2023-02-28T07:38:04;-0.10;99.90
8633;DHT22;4354;49.832;10.746;2023-02-28T07:40:31;0.00;99.90
8633;DHT22;4354;49.832;10.746;2023-02-28T07:42:59;0.20;99.90
8633;DHT22;4354;49.832;10.746;2023-02-28T07:45:27;0.40;99.90
8633;DHT22;4354;49.832;10.746;2023-02-28T07:48:01;0.90;99.90
8633;DHT22;4354;49.832;10.746;2023-02-28T07:50:28;2.40;99.90
8633;DHT22;4354;49.832;10.746;2023-02-28T07:52:58;3.80;99.90
8633;DHT22;4354;49.832;10.746;2023-02-28T07:55:25;5.00;99.90
8633;DHT22;4354;49.832;10.746;2023-02-28T07:57:52;5.90;99.90
8633;DHT22;4354;49.832;10.746;2023-02-28T08:00:18;6.10;97.10
8633;DHT22;4354;49.832;10.746;2023-02-28T08:02:45;6.70;95.20
8633;DHT22;4354;49.832;10.746;2023-02-28T08:05:12;7.20;92.70
8633;DHT22;4354;49.832;10.746;2023-02-28T08:07:39;7.00;91.10
8633;DHT22;4354;49.832;10.746;2023-02-28T08:10:06;7.00;90.40
8633;DHT22;4354;49.832;10.746;2023-02-28T08:12:33;7.20;89.00
8633;DHT22;4354;49.832;10.746;2023-02-28T08:15:00;7.40;87.00
8633;DHT22;4354;49.832;10.746;2023-02-28T08:17:27;7.70;86.00
8633;DHT22;4354;49.832;10.746;2023-02-28T08:19:54;8.20;83.90
8633;DHT22;4354;49.832;10.746;2023-02-28T08:22:20;9.00;81.30
8633;DHT22;4354;49.832;10.746;2023-02-28T08:24:47;9.70;78.10
8633;DHT22;4354;49.832;10.746;2023-02-28T08:27:14;10.10;73.00
8633;DHT22;4354;49.832;10.746;2023-02-28T08:29:44;9.90;70.80
8633;DHT22;4354;49.832;10.746;2023-02-28T08:32:10;9.90;69.60
8633;DHT22;4354;49.832;10.746;2023-02-28T08:34:54;10.20;67.70
8633;DHT22;4354;49.832;10.746;2023-02-28T08:37:21;10.60;65.60
8633;DHT22;4354;49.832;10.746;2023-02-28T08:39:48;10.40;64.90
8633;DHT22;4354;49.832;10.746;2023-02-28T08:42:14;10.40;63.70
8633;DHT22;4354;49.832;10.746;2023-02-28T08:44:41;10.20;64.00
8633;DHT22;4354;49.832;10.746;2023-02-28T08:47:08;10.40;62.30
8633;DHT22;4354;49.832;10.746;2023-02-28T08:49:35;10.50;61.70
8633;DHT22;4354;49.832;10.746;2023-02-28T08:52:01;10.60;61.10
8633;DHT22;4354;49.832;10.746;2023-02-28T08:54:28;11.60;59.80
8633;DHT22;4354;49.832;10.746;2023-02-28T08:56:57;12.30;59.30
8633;DHT22;4354;49.832;10.746;2023-02-28T08:59:24;13.10;56.40
8633;DHT22;4354;49.832;10.746;2023-02-28T09:01:51;13.10;54.70
8633;DHT22;4354;49.832;10.746;2023-02-28T09:04:18;12.60;54.60
8633;DHT22;4354;49.832;10.746;2023-02-28T09:06:46;12.60;53.60
8633;DHT22;4354;49.832;10.746;2023-02-28T09:09:15;12.50;54.50
8633;DHT22;4354;49.832;10.746;2023-02-28T09:11:42;12.90;54.10
8633;DHT22;4354;49.832;10.746;2023-02-28T09:14:09;13.50;52.70
8633;DHT22;4354;49.832;10.746;2023-02-28T09:16:35;13.90;50.60
8633;DHT22;4354;49.832;10.746;2023-02-28T09:19:03;13.60;50.50
8633;DHT22;4354;49.832;10.746;2023-02-28T09:21:30;12.90;50.40
8633;DHT22;4354;49.832;10.746;2023-02-28T09:23:57;11.50;51.10
8633;DHT22;4354;49.832;10.746;2023-02-28T09:26:26;9.60;54.80
8633;DHT22;4354;49.832;10.746;2023-02-28T09:29:04;8.30;57.00
8633;DHT22;4354;49.832;10.746;2023-02-28T09:31:31;6.80;59.70
8633;DHT22;4354;49.832;10.746;2023-02-28T09:33:58;6.00;62.70
8633;DHT22;4354;49.832;10.746;2023-02-28T09:36:27;5.20;64.60
8633;DHT22;4354;49.832;10.746;2023-02-28T09:39:09;4.80;66.90
8633;DHT22;4354;49.832;10.746;2023-02-28T09:41:39;4.50;68.80
8633;DHT22;4354;49.832;10.746;2023-02-28T09:44:30;4.30;69.10
8633;DHT22;4354;49.832;10.746;2023-02-28T09:47:01;3.90;70.90
8633;DHT22;4354;49.832;10.746;2023-02-28T09:49:41;3.70;71.20
8633;DHT22;4354;49.832;10.746;2023-02-28T09:52:29;3.50;72.90
8633;DHT22;4354;49.832;10.746;2023-02-28T09:55:19;3.30;72.80
8633;DHT22;4354;49.832;10.746;2023-02-28T09:57:46;3.30;74.30
8633;DHT22;4354;49.832;10.746;2023-02-28T10:00:21;3.30;76.00
8633;DHT22;4354;49.832;10.746;2023-02-28T10:03:24;3.40;75.70
8633;DHT22;4354;49.832;10.746;2023-02-28T10:11:25;3.50;76.00
8633;DHT22;4354;49.832;10.746;2023-02-28T10:19:11;3.80;77.50
8633;DHT22;4354;49.832;10.746;2023-02-28T10:21:43;3.80;76.40
8633;DHT22;4354;49.832;10.746;2023-02-28T10:27:16;3.90;76.70
8633;DHT22;4354;49.832;10.746;2023-02-28T10:29:52;4.00;76.60
8633;DHT22;4354;49.832;10.746;2023-02-28T10:32:40;4.10;77.60
8633;DHT22;4354;49.832;10.746;2023-02-28T10:37:41;4.40;76.90
8633;DHT22;4354;49.832;10.746;2023-02-28T10:40:33;4.60;76.60
8633;DHT22;4354;49.832;10.746;2023-02-28T10:43:05;4.80;76.00
8633;DHT22;4354;49.832;10.746;2023-02-28T10:45:35;5.00;76.20
8633;DHT22;4354;49.832;10.746;2023-02-28T10:48:26;5.30;76.00
8633;DHT22;4354;49.832;10.746;2023-02-28T10:50:54;5.20;74.30
8633;DHT22;4354;49.832;10.746;2023-02-28T10:56:02;5.40;74.10
8633;DHT22;4354;49.832;10.746;2023-02-28T11:01:24;6.00;72.30
8633;DHT22;4354;49.832;10.746;2023-02-28T11:03:52;6.20;71.60
8633;DHT22;4354;49.832;10.746;2023-02-28T11:06:29;6.50;71.10
8633;DHT22;4354;49.832;10.746;2023-02-28T11:08:59;6.70;70.50
8633;DHT22;4354;49.832;10.746;2023-02-28T11:11:30;6.90;69.50
8633;DHT22;4354;49.832;10.746;2023-02-28T11:14:04;6.80;69.40
8633;DHT22;4354;49.832;10.746;2023-02-28T11:16:33;6.80;70.40
8633;DHT22;4354;49.832;10.746;2023-02-28T11:19:02;7.10;69.90
8633;DHT22;4354;49.832;10.746;2023-02-28T11:21:33;7.40;69.30
8633;DHT22;4354;49.832;10.746;2023-02-28T11:24:12;7.90;66.90
8633;DHT22;4354;49.832;10.746;2023-02-28T11:26:44;8.30;66.60
8633;DHT22;4354;49.832;10.746;2023-02-28T11:29:20;8.80;66.00
8633;DHT22;4354;49.832;10.746;2023-02-28T11:34:40;9.20;64.40
8633;DHT22;4354;49.832;10.746;2023-02-28T11:37:18;9.00;62.50
8633;DHT22;4354;49.832;10.746;2023-02-28T11:39:46;8.50;63.60
8633;DHT22;4354;49.832;10.746;2023-02-28T11:56:06;9.80;62.40
8633;DHT22;4354;49.832;10.746;2023-02-28T12:18:34;10.40;56.40
8633;DHT22;4354;49.832;10.746;2023-02-28T12:27:12;10.10;56.30
8633;DHT22;4354;49.832;10.746;2023-02-28T12:30:08;10.10;56.70
8633;DHT22;4354;49.832;10.746;2023-02-28T12:32:47;10.10;57.40
8633;DHT22;4354;49.832;10.746;2023-02-28T12:35:25;10.10;57.90
8633;DHT22;4354;49.832;10.746;2023-02-28T12:38:04;10.30;56.80
8633;DHT22;4354;49.832;10.746;2023-02-28T12:43:38;10.00;56.10
8633;DHT22;4354;49.832;10.746;2023-02-28T12:46:19;10.30;58.30
8633;DHT22;4354;49.832;10.746;2023-02-28T12:48:53;10.50;57.20
8633;DHT22;4354;49.832;10.746;2023-02-28T12:51:24;10.40;57.00
8633;DHT22;4354;49.832;10.746;2023-02-28T12:53:58;10.10;56.90
8633;DHT22;4354;49.832;10.746;2023-02-28T12:56:43;9.80;58.90
8633;DHT22;4354;49.832;10.746;2023-02-28T12:59:26;9.60;58.50
8633;DHT22;4354;49.832;10.746;2023-02-28T13:02:00;9.60;59.00
8633;DHT22;4354;49.832;10.746;2023-02-28T13:09:56;9.20;59.50
8633;DHT22;4354;49.832;10.746;2023-02-28T13:12:24;9.20;58.90
8633;DHT22;4354;49.832;10.746;2023-02-28T13:15:23;9.10;59.70
8633;DHT22;4354;49.832;10.746;2023-02-28T13:17:52;8.90;59.90
8633;DHT22;4354;49.832;10.746;2023-02-28T13:20:25;9.00;59.80
8633;DHT22;4354;49.832;10.746;2023-02-28T13:22:56;9.00;59.90
8633;DHT22;4354;49.832;10.746;2023-02-28T13:28:01;8.80;59.90
8633;DHT22;4354;49.832;10.746;2023-02-28T13:33:34;9.00;61.20
8633;DHT22;4354;49.832;10.746;2023-02-28T13:38:42;9.10;60.00
8633;DHT22;4354;49.832;10.746;2023-02-28T13:46:32;8.90;59.00
8633;DHT22;4354;49.832;10.746;2023-02-28T14:03:24;7.30;63.60
8633;DHT22;4354;49.832;10.746;2023-02-28T14:08:35;7.30;62.80
8633;DHT22;4354;49.832;10.746;2023-02-28T14:11:05;7.30;64.00
8633;DHT22;4354;49.832;10.746;2023-02-28T14:13:43;7.20;63.30
8633;DHT22;4354;49.832;10.746;2023-02-28T14:16:22;7.20;64.70
8633;DHT22;4354;49.832;10.746;2023-02-28T14:19:01;7.10;64.80
8633;DHT22;4354;49.832;10.746;2023-02-28T14:21:33;7.00;64.70
8633;DHT22;4354;49.832;10.746;2023-02-28T14:24:27;6.90;65.10
8633;DHT22;4354;49.832;10.746;2023-02-28T14:32:26;6.60;64.80
8633;DHT22;4354;49.832;10.746;2023-02-28T14:37:29;6.50;65.50
8633;DHT22;4354;49.832;10.746;2023-02-28T14:39:58;6.40;65.70
8633;DHT22;4354;49.832;10.746;2023-02-28T14:42:36;6.40;67.50
8633;DHT22;4354;49.832;10.746;2023-02-28T14:45:16;6.30;66.60
8633;DHT22;4354;49.832;10.746;2023-02-28T14:47:43;6.20;66.10
8633;DHT22;4354;49.832;10.746;2023-02-28T14:50:22;6.10;67.20
8633;DHT22;4354;49.832;10.746;2023-02-28T14:52:54;6.10;67.40
8633;DHT22;4354;49.832;10.746;2023-02-28T14:55:36;6.10;66.60
8633;DHT22;4354;49.832;10.746;2023-02-28T14:58:06;5.90;67.90
8633;DHT22;4354;49.832;10.746;2023-02-28T15:00:47;5.90;68.40
8633;DHT22;4354;49.832;10.746;2023-02-28T15:03:35;5.90;68.40
8633;DHT22;4354;49.832;10.746;2023-02-28T15:06:14;5.90;67.60
8633;DHT22;4354;49.832;10.746;2023-02-28T15:08:41;5.90;67.30
8633;DHT22;4354;49.832;10.746;2023-02-28T15:11:18;5.70;68.50
8633;DHT22;4354;49.832;10.746;2023-02-28T15:13:54;5.70;68.70
8633;DHT22;4354;49.832;10.746;2023-02-28T15:16:26;5.60;68.90
8633;DHT22;4354;49.832;10.746;2023-02-28T15:18:59;5.50;68.80
8633;DHT22;4354;49.832;10.746;2023-02-28T15:21:30;5.40;68.80
8633;DHT22;4354;49.832;10.746;2023-02-28T15:26:38;5.20;69.50
8633;DHT22;4354;49.832;10.746;2023-02-28T15:29:29;5.10;69.80
8633;DHT22;4354;49.832;10.746;2023-02-28T15:34:40;5.10;70.00
8633;DHT22;4354;49.832;10.746;2023-02-28T15:48:24;4.60;70.90
8633;DHT22;4354;49.832;10.746;2023-02-28T15:50:56;4.60;71.10
8633;DHT22;4354;49.832;10.746;2023-02-28T15:53:36;4.50;70.90
8633;DHT22;4354;49.832;10.746;2023-02-28T15:58:49;4.40;71.50
8633;DHT22;4354;49.832;10.746;2023-02-28T16:01:25;4.30;71.70
8633;DHT22;4354;49.832;10.746;2023-02-28T16:03:54;4.40;71.80
8633;DHT22;4354;49.832;10.746;2023-02-28T16:08:51;4.20;72.00
8633;DHT22;4354;49.832;10.746;2023-02-28T16:11:20;4.10;72.60
8633;DHT22;4354;49.832;10.746;2023-02-28T16:13:48;4.10;72.90
8633;DHT22;4354;49.832;10.746;2023-02-28T16:16:18;4.00;73.10
8633;DHT22;4354;49.832;10.746;2023-02-28T16:18:46;3.90;73.30
8633;DHT22;4354;49.832;10.746;2023-02-28T16:21:12;3.80;73.60
8633;DHT22;4354;49.832;10.746;2023-02-28T16:23:39;3.70;73.20
8633;DHT22;4354;49.832;10.746;2023-02-28T16:26:06;3.50;73.60
8633;DHT22;4354;49.832;10.746;2023-02-28T16:28:36;3.40;74.50
8633;DHT22;4354;49.832;10.746;2023-02-28T16:31:06;3.40;74.40
8633;DHT22;4354;49.832;10.746;2023-02-28T16:33:33;3.30;73.90
8633;DHT22;4354;49.832;10.746;2023-02-28T16:36:01;3.20;74.30
8633;DHT22;4354;49.832;10.746;2023-02-28T16:38:27;3.00;74.50
8633;DHT22;4354;49.832;10.746;2023-02-28T16:40:57;2.90;75.20
8633;DHT22;4354;49.832;10.746;2023-02-28T16:43:26;2.90;75.30
8633;DHT22;4354;49.832;10.746;2023-02-28T16:45:57;2.80;76.20
8633;DHT22;4354;49.832;10.746;2023-02-28T16:48:28;2.70;75.90
8633;DHT22;4354;49.832;10.746;2023-02-28T16:50:54;2.60;76.40
8633;DHT22;4354;49.832;10.746;2023-02-28T16:53:21;2.50;76.60
8633;DHT22;4354;49.832;10.746;2023-02-28T16:55:48;2.50;77.80
8633;DHT22;4354;49.832;10.746;2023-02-28T16:58:17;2.40;77.20
8633;DHT22;4354;49.832;10.746;2023-02-28T17:00:45;2.30;78.00
8633;DHT22;4354;49.832;10.746;2023-02-28T17:03:25;2.30;78.60
8633;DHT22;4354;49.832;10.746;2023-02-28T17:06:00;2.10;79.30
8633;DHT22;4354;49.832;10.746;2023-02-28T17:08:26;2.00;79.30
8633;DHT22;4354;49.832;10.746;2023-02-28T17:10:55;2.00;79.20
8633;DHT22;4354;49.832;10.746;2023-02-28T17:13:22;1.90;79.30
8633;DHT22;4354;49.832;10.746;2023-02-28T17:15:49;1.90;80.00
8633;DHT22;4354;49.832;10.746;2023-02-28T17:18:18;1.80;80.40
8633;DHT22;4354;49.832;10.746;2023-02-28T17:20:46;1.70;80.80
8633;DHT22;4354;49.832;10.746;2023-02-28T17:23:12;1.60;81.40
8633;DHT22;4354;49.832;10.746;2023-02-28T17:25:39;1.60;82.30
8633;DHT22;4354;49.832;10.746;2023-02-28T17:28:06;1.60;83.90
8633;DHT22;4354;49.832;10.746;2023-02-28T17:30:34;1.50;83.70
8633;DHT22;4354;49.832;10.746;2023-02-28T17:33:01;1.40;84.20
8633;DHT22;4354;49.832;10.746;2023-02-28T17:35:29;1.40;84.80
8633;DHT22;4354;49.832;10.746;2023-02-28T17:37:56;1.30;85.30
8633;DHT22;4354;49.832;10.746;2023-02-28T17:40:23;1.30;86.90
8633;DHT22;4354;49.832;10.746;2023-02-28T17:42:51;1.20;86.90
8633;DHT22;4354;49.832;10.746;2023-02-28T17:45:22;1.10;87.00
8633;DHT22;4354;49.832;10.746;2023-02-28T17:47:49;1.10;88.00
8633;DHT22;4354;49.832;10.746;2023-02-28T17:50:21;1.00;88.50
8633;DHT22;4354;49.832;10.746;2023-02-28T17:52:48;1.00;89.80
8633;DHT22;4354;49.832;10.746;2023-02-28T17:55:16;1.00;90.70
8633;DHT22;4354;49.832;10.746;2023-02-28T17:57:46;0.90;90.80
8633;DHT22;4354;49.832;10.746;2023-02-28T18:00:15;0.80;91.50
8633;DHT22;4354;49.832;10.746;2023-02-28T18:02:43;0.80;91.50
8633;DHT22;4354;49.832;10.746;2023-02-28T18:05:11;0.70;92.00
8633;DHT22;4354;49.832;10.746;2023-02-28T18:10:16;0.70;93.50
8633;DHT22;4354;49.832;10.746;2023-02-28T18:12:47;0.60;93.90
8633;DHT22;4354;49.832;10.746;2023-02-28T18:15:15;0.60;94.60
8633;DHT22;4354;49.832;10.746;2023-02-28T18:17:43;0.50;95.80
8633;DHT22;4354;49.832;10.746;2023-02-28T18:20:11;0.40;96.60
8633;DHT22;4354;49.832;10.746;2023-02-28T18:22:40;0.40;97.40
8633;DHT22;4354;49.832;10.746;2023-02-28T18:25:09;0.30;98.50
8633;DHT22;4354;49.832;10.746;2023-02-28T18:27:40;0.20;99.10
8633;DHT22;4354;49.832;10.746;2023-02-28T18:30:31;0.10;99.90
8633;DHT22;4354;49.832;10.746;2023-02-28T18:32:59;0.00;99.90
8633;DHT22;4354;49.832;10.746;2023-02-28T18:35:27;0.00;99.90
8633;DHT22;4354;49.832;10.746;2023-02-28T18:38:06;-0.10;99.90
8633;DHT22;4354;49.832;10.746;2023-02-28T18:40:33;-0.30;99.90
8633;DHT22;4354;49.832;10.746;2023-02-28T18:43:00;-0.30;99.90
8633;DHT22;4354;49.832;10.746;2023-02-28T18:45:27;-0.40;99.90
8633;DHT22;4354;49.832;10.746;2023-02-28T18:47:54;-0.50;99.90
8633;DHT22;4354;49.832;10.746;2023-02-28T18:50:21;-0.50;99.90
8633;DHT22;4354;49.832;10.746;2023-02-28T18:52:48;-0.50;99.90
8633;DHT22;4354;49.832;10.746;2023-02-28T18:55:15;-0.40;99.90
8633;DHT22;4354;49.832;10.746;2023-02-28T18:57:45;-0.30;99.90
8633;DHT22;4354;49.832;10.746;2023-02-28T19:00:15;-0.30;99.90
8633;DHT22;4354;49.832;10.746;2023-02-28T19:02:44;-0.30;99.90